Sonora, Ohio
Current Conditions -  °F | °C
As of 1:53 PM on Saturday 25 Oct 2014 (Local Time) from KZZV Reporting Station
Overcast Overcast  
Wind Chill: 66°   Ceiling: 3900
Heat Index: 66°   Visibility: 10mi
Dew Point: 51°   Wind: 13mph
Humidity: 59%   Direction: 220°SW
Pressure: 29.87"   Gusts: NA
Location:  39.9489°N, 82.0572°W
Report Text: KZZV 251753Z AUTO 22011KT 10SM OVC039 19/11 A2987 RMK AO2 SLP114 T01890106 10189 20033 58032
Loading
Personal Weather Stations






























Interactive Weather Map
Tropical Storm Tracking
New forecast layout! Learn more

10-Day Weather Forecast

Advertisements
Track Severe Weather on mobile